sensor_id;sensor_type;location;lat;lon;timestamp;P1;durP1;ratioP1;P2;durP2;ratioP2
16119;SDS011;12670;53.502;10.252;2023-11-21T00:02:56;9.77;;;6.00;;
16119;SDS011;12670;53.502;10.252;2023-11-21T00:05:59;14.73;;;7.30;;
16119;SDS011;12670;53.502;10.252;2023-11-21T00:09:03;14.33;;;6.80;;
16119;SDS011;12670;53.502;10.252;2023-11-21T00:12:06;12.00;;;6.73;;
16119;SDS011;12670;53.502;10.252;2023-11-21T00:15:12;14.47;;;7.57;;
16119;SDS011;12670;53.502;10.252;2023-11-21T00:18:15;12.97;;;7.30;;
16119;SDS011;12670;53.502;10.252;2023-11-21T00:21:17;11.90;;;6.80;;
16119;SDS011;12670;53.502;10.252;2023-11-21T00:24:20;14.07;;;6.63;;
16119;SDS011;12670;53.502;10.252;2023-11-21T00:27:23;15.70;;;6.70;;
16119;SDS011;12670;53.502;10.252;2023-11-21T00:30:27;13.07;;;6.60;;
16119;SDS011;12670;53.502;10.252;2023-11-21T00:33:31;15.40;;;7.97;;
16119;SDS011;12670;53.502;10.252;2023-11-21T00:36:34;17.20;;;7.70;;
16119;SDS011;12670;53.502;10.252;2023-11-21T00:39:37;15.27;;;7.97;;
16119;SDS011;12670;53.502;10.252;2023-11-21T00:42:41;15.73;;;7.93;;
16119;SDS011;12670;53.502;10.252;2023-11-21T00:45:45;17.20;;;7.53;;
16119;SDS011;12670;53.502;10.252;2023-11-21T00:48:50;13.20;;;7.33;;
16119;SDS011;12670;53.502;10.252;2023-11-21T00:51:53;14.40;;;7.50;;
16119;SDS011;12670;53.502;10.252;2023-11-21T00:54:56;19.53;;;7.83;;
16119;SDS011;12670;53.502;10.252;2023-11-21T00:58:01;18.20;;;7.77;;
16119;SDS011;12670;53.502;10.252;2023-11-21T01:01:06;13.77;;;7.63;;
16119;SDS011;12670;53.502;10.252;2023-11-21T01:04:09;16.17;;;8.67;;
16119;SDS011;12670;53.502;10.252;2023-11-21T01:07:12;21.57;;;8.87;;
16119;SDS011;12670;53.502;10.252;2023-11-21T01:10:15;22.67;;;9.93;;
16119;SDS011;12670;53.502;10.252;2023-11-21T01:13:18;18.70;;;8.90;;
16119;SDS011;12670;53.502;10.252;2023-11-21T01:16:22;13.80;;;8.87;;
16119;SDS011;12670;53.502;10.252;2023-11-21T01:19:26;19.27;;;8.87;;
16119;SDS011;12670;53.502;10.252;2023-11-21T01:22:30;14.40;;;8.13;;
16119;SDS011;12670;53.502;10.252;2023-11-21T01:25:33;15.10;;;8.17;;
16119;SDS011;12670;53.502;10.252;2023-11-21T01:28:35;13.13;;;7.50;;
16119;SDS011;12670;53.502;10.252;2023-11-21T01:31:39;13.87;;;7.30;;
16119;SDS011;12670;53.502;10.252;2023-11-21T01:34:42;14.53;;;7.57;;
16119;SDS011;12670;53.502;10.252;2023-11-21T01:37:45;13.60;;;7.23;;
16119;SDS011;12670;53.502;10.252;2023-11-21T01:40:49;11.97;;;7.10;;
16119;SDS011;12670;53.502;10.252;2023-11-21T01:43:52;16.63;;;7.07;;
16119;SDS011;12670;53.502;10.252;2023-11-21T01:46:56;10.80;;;6.50;;
16119;SDS011;12670;53.502;10.252;2023-11-21T01:49:59;13.70;;;7.00;;
16119;SDS011;12670;53.502;10.252;2023-11-21T01:53:02;12.97;;;6.87;;
16119;SDS011;12670;53.502;10.252;2023-11-21T01:56:06;13.07;;;6.17;;
16119;SDS011;12670;53.502;10.252;2023-11-21T01:59:11;12.90;;;6.67;;
16119;SDS011;12670;53.502;10.252;2023-11-21T02:02:17;10.03;;;5.50;;
16119;SDS011;12670;53.502;10.252;2023-11-21T02:05:20;11.50;;;5.77;;
16119;SDS011;12670;53.502;10.252;2023-11-21T02:08:23;10.37;;;5.80;;
16119;SDS011;12670;53.502;10.252;2023-11-21T02:11:26;10.23;;;5.93;;
16119;SDS011;12670;53.502;10.252;2023-11-21T02:14:29;12.43;;;5.60;;
16119;SDS011;12670;53.502;10.252;2023-11-21T02:17:34;10.53;;;5.70;;
16119;SDS011;12670;53.502;10.252;2023-11-21T02:20:37;8.30;;;5.17;;
16119;SDS011;12670;53.502;10.252;2023-11-21T02:23:44;8.93;;;5.07;;
16119;SDS011;12670;53.502;10.252;2023-11-21T02:26:47;10.63;;;5.37;;
16119;SDS011;12670;53.502;10.252;2023-11-21T02:29:52;8.23;;;5.10;;
16119;SDS011;12670;53.502;10.252;2023-11-21T02:32:55;10.33;;;5.27;;
16119;SDS011;12670;53.502;10.252;2023-11-21T02:35:59;9.53;;;5.37;;
16119;SDS011;12670;53.502;10.252;2023-11-21T02:39:03;14.60;;;5.80;;
16119;SDS011;12670;53.502;10.252;2023-11-21T02:42:06;9.63;;;5.60;;
16119;SDS011;12670;53.502;10.252;2023-11-21T02:45:09;15.60;;;5.83;;
16119;SDS011;12670;53.502;10.252;2023-11-21T02:48:13;11.10;;;5.97;;
16119;SDS011;12670;53.502;10.252;2023-11-21T02:51:16;8.87;;;5.27;;
16119;SDS011;12670;53.502;10.252;2023-11-21T02:54:20;9.50;;;5.43;;
16119;SDS011;12670;53.502;10.252;2023-11-21T02:57:23;13.37;;;6.00;;
16119;SDS011;12670;53.502;10.252;2023-11-21T03:00:26;9.73;;;5.40;;
16119;SDS011;12670;53.502;10.252;2023-11-21T03:03:28;9.83;;;6.03;;
16119;SDS011;12670;53.502;10.252;2023-11-21T03:06:31;9.60;;;6.10;;
16119;SDS011;12670;53.502;10.252;2023-11-21T03:09:36;12.53;;;5.97;;
16119;SDS011;12670;53.502;10.252;2023-11-21T03:12:39;12.17;;;6.40;;
16119;SDS011;12670;53.502;10.252;2023-11-21T03:15:42;10.90;;;6.03;;
16119;SDS011;12670;53.502;10.252;2023-11-21T03:18:45;11.13;;;6.43;;
16119;SDS011;12670;53.502;10.252;2023-11-21T03:21:47;11.23;;;5.87;;
16119;SDS011;12670;53.502;10.252;2023-11-21T03:24:51;12.40;;;6.43;;
16119;SDS011;12670;53.502;10.252;2023-11-21T03:27:54;12.23;;;6.27;;
16119;SDS011;12670;53.502;10.252;2023-11-21T03:30:57;13.60;;;6.70;;
16119;SDS011;12670;53.502;10.252;2023-11-21T03:33:59;11.17;;;6.43;;
16119;SDS011;12670;53.502;10.252;2023-11-21T03:37:02;10.13;;;6.30;;
16119;SDS011;12670;53.502;10.252;2023-11-21T03:40:07;10.93;;;6.50;;
16119;SDS011;12670;53.502;10.252;2023-11-21T03:43:11;10.97;;;6.20;;
16119;SDS011;12670;53.502;10.252;2023-11-21T03:46:13;13.03;;;6.47;;
16119;SDS011;12670;53.502;10.252;2023-11-21T03:49:16;17.13;;;6.77;;
16119;SDS011;12670;53.502;10.252;2023-11-21T03:52:19;14.23;;;6.47;;
16119;SDS011;12670;53.502;10.252;2023-11-21T03:55:23;11.70;;;6.20;;
16119;SDS011;12670;53.502;10.252;2023-11-21T03:58:26;10.83;;;6.10;;
16119;SDS011;12670;53.502;10.252;2023-11-21T04:01:29;9.53;;;5.83;;
16119;SDS011;12670;53.502;10.252;2023-11-21T04:04:31;11.60;;;5.83;;
16119;SDS011;12670;53.502;10.252;2023-11-21T04:07:35;10.03;;;6.17;;
16119;SDS011;12670;53.502;10.252;2023-11-21T04:10:40;11.80;;;5.47;;
16119;SDS011;12670;53.502;10.252;2023-11-21T04:13:43;12.40;;;6.67;;
16119;SDS011;12670;53.502;10.252;2023-11-21T04:16:48;11.20;;;6.40;;
16119;SDS011;12670;53.502;10.252;2023-11-21T04:19:51;11.03;;;6.03;;
16119;SDS011;12670;53.502;10.252;2023-11-21T04:22:53;11.67;;;6.57;;
16119;SDS011;12670;53.502;10.252;2023-11-21T04:25:57;14.07;;;6.53;;
16119;SDS011;12670;53.502;10.252;2023-11-21T04:29:00;10.10;;;6.13;;
16119;SDS011;12670;53.502;10.252;2023-11-21T04:32:03;14.60;;;5.87;;
16119;SDS011;12670;53.502;10.252;2023-11-21T04:35:07;13.03;;;6.57;;
16119;SDS011;12670;53.502;10.252;2023-11-21T04:38:10;11.43;;;6.57;;
16119;SDS011;12670;53.502;10.252;2023-11-21T04:41:14;9.03;;;5.37;;
16119;SDS011;12670;53.502;10.252;2023-11-21T04:44:17;11.90;;;6.20;;
16119;SDS011;12670;53.502;10.252;2023-11-21T04:47:20;13.27;;;5.53;;
16119;SDS011;12670;53.502;10.252;2023-11-21T04:50:23;8.97;;;5.60;;
16119;SDS011;12670;53.502;10.252;2023-11-21T04:53:27;11.50;;;5.87;;
16119;SDS011;12670;53.502;10.252;2023-11-21T04:56:31;9.93;;;5.70;;
16119;SDS011;12670;53.502;10.252;2023-11-21T04:59:33;10.60;;;5.90;;
16119;SDS011;12670;53.502;10.252;2023-11-21T05:02:36;9.70;;;6.03;;
16119;SDS011;12670;53.502;10.252;2023-11-21T05:05:39;12.10;;;6.10;;
16119;SDS011;12670;53.502;10.252;2023-11-21T05:08:42;10.87;;;5.97;;
16119;SDS011;12670;53.502;10.252;2023-11-21T05:11:46;11.00;;;6.07;;
16119;SDS011;12670;53.502;10.252;2023-11-21T05:14:49;9.87;;;6.00;;
16119;SDS011;12670;53.502;10.252;2023-11-21T05:17:51;12.07;;;5.90;;
16119;SDS011;12670;53.502;10.252;2023-11-21T05:20:55;8.17;;;5.07;;
16119;SDS011;12670;53.502;10.252;2023-11-21T05:23:57;10.20;;;6.00;;
16119;SDS011;12670;53.502;10.252;2023-11-21T05:27:02;13.07;;;6.03;;
16119;SDS011;12670;53.502;10.252;2023-11-21T05:30:05;10.60;;;6.00;;
16119;SDS011;12670;53.502;10.252;2023-11-21T05:33:10;10.30;;;5.70;;
16119;SDS011;12670;53.502;10.252;2023-11-21T05:36:13;12.97;;;5.60;;
16119;SDS011;12670;53.502;10.252;2023-11-21T05:39:16;11.20;;;6.07;;
16119;SDS011;12670;53.502;10.252;2023-11-21T05:42:21;12.13;;;5.83;;
16119;SDS011;12670;53.502;10.252;2023-11-21T05:45:24;11.60;;;6.00;;
16119;SDS011;12670;53.502;10.252;2023-11-21T05:48:27;17.73;;;6.53;;
16119;SDS011;12670;53.502;10.252;2023-11-21T05:51:29;12.63;;;5.83;;
16119;SDS011;12670;53.502;10.252;2023-11-21T05:54:32;21.07;;;6.10;;
16119;SDS011;12670;53.502;10.252;2023-11-21T05:57:37;12.13;;;6.20;;
16119;SDS011;12670;53.502;10.252;2023-11-21T06:00:41;10.77;;;6.37;;
16119;SDS011;12670;53.502;10.252;2023-11-21T06:03:43;12.17;;;6.00;;
16119;SDS011;12670;53.502;10.252;2023-11-21T06:06:47;17.30;;;6.50;;
16119;SDS011;12670;53.502;10.252;2023-11-21T06:09:50;16.43;;;6.37;;
16119;SDS011;12670;53.502;10.252;2023-11-21T06:12:54;18.53;;;6.67;;
16119;SDS011;12670;53.502;10.252;2023-11-21T06:15:56;11.67;;;5.70;;
16119;SDS011;12670;53.502;10.252;2023-11-21T06:18:59;16.27;;;6.27;;
16119;SDS011;12670;53.502;10.252;2023-11-21T06:22:02;11.43;;;5.73;;
16119;SDS011;12670;53.502;10.252;2023-11-21T06:25:05;12.83;;;6.53;;
16119;SDS011;12670;53.502;10.252;2023-11-21T06:28:11;16.33;;;6.57;;
16119;SDS011;12670;53.502;10.252;2023-11-21T06:31:14;12.20;;;6.27;;
16119;SDS011;12670;53.502;10.252;2023-11-21T06:34:17;13.50;;;6.60;;
16119;SDS011;12670;53.502;10.252;2023-11-21T06:37:19;11.53;;;6.33;;
16119;SDS011;12670;53.502;10.252;2023-11-21T06:40:24;12.50;;;6.33;;
16119;SDS011;12670;53.502;10.252;2023-11-21T06:43:28;11.40;;;6.57;;
16119;SDS011;12670;53.502;10.252;2023-11-21T06:46:32;11.47;;;6.67;;
16119;SDS011;12670;53.502;10.252;2023-11-21T06:49:35;12.43;;;6.50;;
16119;SDS011;12670;53.502;10.252;2023-11-21T06:52:39;10.03;;;6.13;;
16119;SDS011;12670;53.502;10.252;2023-11-21T06:55:42;17.33;;;6.50;;
16119;SDS011;12670;53.502;10.252;2023-11-21T06:58:46;10.03;;;6.30;;
16119;SDS011;12670;53.502;10.252;2023-11-21T07:01:50;17.37;;;7.10;;
16119;SDS011;12670;53.502;10.252;2023-11-21T07:04:53;10.93;;;6.77;;
16119;SDS011;12670;53.502;10.252;2023-11-21T07:07:56;11.53;;;6.90;;
16119;SDS011;12670;53.502;10.252;2023-11-21T07:10:58;10.07;;;6.07;;
16119;SDS011;12670;53.502;10.252;2023-11-21T07:14:03;14.97;;;6.27;;
16119;SDS011;12670;53.502;10.252;2023-11-21T07:17:08;11.63;;;6.77;;
16119;SDS011;12670;53.502;10.252;2023-11-21T07:20:11;13.93;;;6.40;;
16119;SDS011;12670;53.502;10.252;2023-11-21T07:23:15;12.13;;;6.53;;
16119;SDS011;12670;53.502;10.252;2023-11-21T07:26:17;10.47;;;6.43;;
16119;SDS011;12670;53.502;10.252;2023-11-21T07:29:22;16.77;;;6.80;;
16119;SDS011;12670;53.502;10.252;2023-11-21T07:32:26;13.90;;;7.00;;
16119;SDS011;12670;53.502;10.252;2023-11-21T07:35:29;12.80;;;7.53;;
16119;SDS011;12670;53.502;10.252;2023-11-21T07:38:32;12.80;;;7.23;;
16119;SDS011;12670;53.502;10.252;2023-11-21T07:41:35;13.93;;;7.23;;
16119;SDS011;12670;53.502;10.252;2023-11-21T07:44:40;15.47;;;7.60;;
16119;SDS011;12670;53.502;10.252;2023-11-21T07:47:43;15.73;;;7.83;;
16119;SDS011;12670;53.502;10.252;2023-11-21T07:50:46;14.10;;;7.73;;
16119;SDS011;12670;53.502;10.252;2023-11-21T07:53:49;18.87;;;7.07;;
16119;SDS011;12670;53.502;10.252;2023-11-21T07:56:51;14.17;;;7.40;;
16119;SDS011;12670;53.502;10.252;2023-11-21T07:59:55;14.93;;;7.83;;
16119;SDS011;12670;53.502;10.252;2023-11-21T08:02:58;13.80;;;7.13;;
16119;SDS011;12670;53.502;10.252;2023-11-21T08:06:01;13.40;;;7.73;;
16119;SDS011;12670;53.502;10.252;2023-11-21T08:09:06;17.30;;;7.50;;
16119;SDS011;12670;53.502;10.252;2023-11-21T08:12:10;16.83;;;7.40;;
16119;SDS011;12670;53.502;10.252;2023-11-21T08:15:14;18.13;;;7.83;;
16119;SDS011;12670;53.502;10.252;2023-11-21T08:18:17;14.17;;;7.50;;
16119;SDS011;12670;53.502;10.252;2023-11-21T08:21:20;11.37;;;6.70;;
16119;SDS011;12670;53.502;10.252;2023-11-21T08:24:25;13.60;;;7.10;;
16119;SDS011;12670;53.502;10.252;2023-11-21T08:27:27;11.73;;;7.30;;
16119;SDS011;12670;53.502;10.252;2023-11-21T08:30:31;14.73;;;7.47;;
16119;SDS011;12670;53.502;10.252;2023-11-21T08:33:34;11.70;;;8.37;;
16119;SDS011;12670;53.502;10.252;2023-11-21T08:36:40;12.17;;;6.87;;
16119;SDS011;12670;53.502;10.252;2023-11-21T08:39:43;11.70;;;6.50;;
16119;SDS011;12670;53.502;10.252;2023-11-21T08:42:47;15.93;;;7.10;;
16119;SDS011;12670;53.502;10.252;2023-11-21T08:45:51;10.60;;;6.07;;
16119;SDS011;12670;53.502;10.252;2023-11-21T08:48:54;9.17;;;5.83;;
16119;SDS011;12670;53.502;10.252;2023-11-21T08:51:57;11.10;;;6.10;;
16119;SDS011;12670;53.502;10.252;2023-11-21T08:55:00;9.77;;;5.43;;
16119;SDS011;12670;53.502;10.252;2023-11-21T08:58:08;11.43;;;6.20;;
16119;SDS011;12670;53.502;10.252;2023-11-21T09:01:14;8.70;;;5.40;;
16119;SDS011;12670;53.502;10.252;2023-11-21T09:04:18;15.43;;;5.57;;
16119;SDS011;12670;53.502;10.252;2023-11-21T09:07:21;11.13;;;5.40;;
16119;SDS011;12670;53.502;10.252;2023-11-21T09:10:23;8.03;;;5.17;;
16119;SDS011;12670;53.502;10.252;2023-11-21T09:13:27;8.10;;;5.30;;
16119;SDS011;12670;53.502;10.252;2023-11-21T09:16:32;13.17;;;5.20;;
16119;SDS011;12670;53.502;10.252;2023-11-21T09:19:35;11.77;;;4.90;;
16119;SDS011;12670;53.502;10.252;2023-11-21T09:22:37;8.87;;;5.17;;
16119;SDS011;12670;53.502;10.252;2023-11-21T09:25:40;11.87;;;5.10;;
16119;SDS011;12670;53.502;10.252;2023-11-21T09:28:47;9.97;;;5.40;;
16119;SDS011;12670;53.502;10.252;2023-11-21T09:31:51;11.33;;;5.00;;
16119;SDS011;12670;53.502;10.252;2023-11-21T09:34:59;6.70;;;4.43;;
16119;SDS011;12670;53.502;10.252;2023-11-21T09:38:04;6.63;;;4.50;;
16119;SDS011;12670;53.502;10.252;2023-11-21T09:41:15;8.17;;;4.97;;
16119;SDS011;12670;53.502;10.252;2023-11-21T09:44:25;10.93;;;3.70;;
16119;SDS011;12670;53.502;10.252;2023-11-21T09:47:37;5.83;;;3.43;;
16119;SDS011;12670;53.502;10.252;2023-11-21T09:50:41;6.83;;;3.37;;
16119;SDS011;12670;53.502;10.252;2023-11-21T09:53:44;7.17;;;3.47;;
16119;SDS011;12670;53.502;10.252;2023-11-21T09:56:51;4.90;;;3.07;;
16119;SDS011;12670;53.502;10.252;2023-11-21T09:59:54;5.27;;;3.17;;
16119;SDS011;12670;53.502;10.252;2023-11-21T10:03:01;11.90;;;3.17;;
16119;SDS011;12670;53.502;10.252;2023-11-21T10:06:05;5.03;;;2.97;;
16119;SDS011;12670;53.502;10.252;2023-11-21T10:09:09;4.20;;;2.70;;
16119;SDS011;12670;53.502;10.252;2023-11-21T10:12:13;5.07;;;3.07;;
16119;SDS011;12670;53.502;10.252;2023-11-21T10:15:17;4.83;;;3.13;;
16119;SDS011;12670;53.502;10.252;2023-11-21T10:18:21;4.97;;;3.10;;
16119;SDS011;12670;53.502;10.252;2023-11-21T10:21:26;5.87;;;2.80;;
16119;SDS011;12670;53.502;10.252;2023-11-21T10:24:29;5.13;;;3.00;;
16119;SDS011;12670;53.502;10.252;2023-11-21T10:27:48;9.37;;;2.83;;
16119;SDS011;12670;53.502;10.252;2023-11-21T10:30:53;5.83;;;3.43;;
16119;SDS011;12670;53.502;10.252;2023-11-21T10:33:57;6.47;;;3.17;;
16119;SDS011;12670;53.502;10.252;2023-11-21T10:37:15;5.43;;;3.20;;
16119;SDS011;12670;53.502;10.252;2023-11-21T10:40:20;6.27;;;3.00;;
16119;SDS011;12670;53.502;10.252;2023-11-21T10:43:24;10.10;;;3.47;;
16119;SDS011;12670;53.502;10.252;2023-11-21T10:46:28;5.10;;;3.07;;
16119;SDS011;12670;53.502;10.252;2023-11-21T10:49:33;5.93;;;3.33;;
16119;SDS011;12670;53.502;10.252;2023-11-21T10:52:36;5.40;;;3.17;;
16119;SDS011;12670;53.502;10.252;2023-11-21T10:55:40;8.47;;;3.20;;
16119;SDS011;12670;53.502;10.252;2023-11-21T10:58:45;4.80;;;3.00;;
16119;SDS011;12670;53.502;10.252;2023-11-21T11:01:48;4.60;;;2.97;;
16119;SDS011;12670;53.502;10.252;2023-11-21T11:04:55;5.43;;;3.17;;
16119;SDS011;12670;53.502;10.252;2023-11-21T11:08:02;6.13;;;3.00;;
16119;SDS011;12670;53.502;10.252;2023-11-21T11:11:07;4.93;;;3.23;;
16119;SDS011;12670;53.502;10.252;2023-11-21T11:14:11;5.63;;;3.23;;
16119;SDS011;12670;53.502;10.252;2023-11-21T11:17:14;8.30;;;3.07;;
16119;SDS011;12670;53.502;10.252;2023-11-21T11:20:18;6.00;;;3.10;;
16119;SDS011;12670;53.502;10.252;2023-11-21T11:23:28;5.17;;;3.03;;
16119;SDS011;12670;53.502;10.252;2023-11-21T11:26:50;5.63;;;3.10;;
16119;SDS011;12670;53.502;10.252;2023-11-21T11:30:05;8.93;;;2.90;;
16119;SDS011;12670;53.502;10.252;2023-11-21T11:33:21;5.50;;;3.37;;
16119;SDS011;12670;53.502;10.252;2023-11-21T11:36:41;6.73;;;2.80;;
16119;SDS011;12670;53.502;10.252;2023-11-21T11:39:50;5.97;;;3.33;;
16119;SDS011;12670;53.502;10.252;2023-11-21T11:42:56;5.33;;;3.00;;
16119;SDS011;12670;53.502;10.252;2023-11-21T11:46:01;6.30;;;3.30;;
16119;SDS011;12670;53.502;10.252;2023-11-21T11:49:05;9.40;;;3.07;;
16119;SDS011;12670;53.502;10.252;2023-11-21T11:55:39;5.73;;;3.20;;
16119;SDS011;12670;53.502;10.252;2023-11-21T11:58:42;5.13;;;3.20;;
16119;SDS011;12670;53.502;10.252;2023-11-21T12:01:46;5.03;;;2.97;;
16119;SDS011;12670;53.502;10.252;2023-11-21T12:04:49;6.03;;;3.57;;
16119;SDS011;12670;53.502;10.252;2023-11-21T12:07:53;4.43;;;3.10;;
16119;SDS011;12670;53.502;10.252;2023-11-21T12:10:58;5.67;;;3.03;;
16119;SDS011;12670;53.502;10.252;2023-11-21T12:14:01;8.03;;;3.37;;
16119;SDS011;12670;53.502;10.252;2023-11-21T12:17:06;5.43;;;3.10;;
16119;SDS011;12670;53.502;10.252;2023-11-21T12:20:10;5.87;;;2.97;;
16119;SDS011;12670;53.502;10.252;2023-11-21T12:23:19;5.63;;;2.97;;
16119;SDS011;12670;53.502;10.252;2023-11-21T12:26:23;7.83;;;3.10;;
16119;SDS011;12670;53.502;10.252;2023-11-21T12:29:26;7.67;;;3.17;;
16119;SDS011;12670;53.502;10.252;2023-11-21T12:32:30;6.03;;;3.30;;
16119;SDS011;12670;53.502;10.252;2023-11-21T12:35:34;4.90;;;3.17;;
16119;SDS011;12670;53.502;10.252;2023-11-21T12:38:39;5.80;;;3.27;;
16119;SDS011;12670;53.502;10.252;2023-11-21T12:41:43;7.40;;;3.50;;
16119;SDS011;12670;53.502;10.252;2023-11-21T12:44:46;6.73;;;3.30;;
16119;SDS011;12670;53.502;10.252;2023-11-21T12:47:50;9.47;;;3.63;;
16119;SDS011;12670;53.502;10.252;2023-11-21T12:50:54;6.37;;;3.67;;
16119;SDS011;12670;53.502;10.252;2023-11-21T12:53:58;3.80;;;2.93;;
16119;SDS011;12670;53.502;10.252;2023-11-21T12:57:02;5.67;;;3.63;;
16119;SDS011;12670;53.502;10.252;2023-11-21T13:00:07;15.93;;;3.47;;
16119;SDS011;12670;53.502;10.252;2023-11-21T13:03:16;8.07;;;3.27;;
16119;SDS011;12670;53.502;10.252;2023-11-21T13:06:25;8.03;;;3.20;;
16119;SDS011;12670;53.502;10.252;2023-11-21T13:09:29;5.50;;;3.27;;
16119;SDS011;12670;53.502;10.252;2023-11-21T13:12:31;6.60;;;3.50;;
16119;SDS011;12670;53.502;10.252;2023-11-21T13:15:38;7.90;;;3.33;;
16119;SDS011;12670;53.502;10.252;2023-11-21T13:18:42;4.40;;;3.37;;
16119;SDS011;12670;53.502;10.252;2023-11-21T13:21:45;4.27;;;3.10;;
16119;SDS011;12670;53.502;10.252;2023-11-21T13:24:49;9.60;;;3.80;;
16119;SDS011;12670;53.502;10.252;2023-11-21T13:27:52;9.60;;;4.33;;
16119;SDS011;12670;53.502;10.252;2023-11-21T13:30:55;6.77;;;3.57;;
16119;SDS011;12670;53.502;10.252;2023-11-21T13:33:58;7.27;;;4.07;;
16119;SDS011;12670;53.502;10.252;2023-11-21T13:37:06;21.30;;;9.27;;
16119;SDS011;12670;53.502;10.252;2023-11-21T13:40:10;8.57;;;3.63;;
16119;SDS011;12670;53.502;10.252;2023-11-21T13:43:16;6.67;;;3.10;;
16119;SDS011;12670;53.502;10.252;2023-11-21T13:46:22;4.43;;;2.87;;
16119;SDS011;12670;53.502;10.252;2023-11-21T13:49:25;5.27;;;3.23;;
16119;SDS011;12670;53.502;10.252;2023-11-21T13:52:28;7.73;;;3.10;;
16119;SDS011;12670;53.502;10.252;2023-11-21T13:55:35;7.27;;;3.00;;
16119;SDS011;12670;53.502;10.252;2023-11-21T13:58:39;5.47;;;2.83;;
16119;SDS011;12670;53.502;10.252;2023-11-21T14:01:47;9.40;;;3.03;;
16119;SDS011;12670;53.502;10.252;2023-11-21T14:04:59;5.90;;;3.00;;
16119;SDS011;12670;53.502;10.252;2023-11-21T14:08:06;10.27;;;3.33;;
16119;SDS011;12670;53.502;10.252;2023-11-21T14:11:10;7.33;;;3.10;;
16119;SDS011;12670;53.502;10.252;2023-11-21T14:14:19;5.57;;;3.10;;
16119;SDS011;12670;53.502;10.252;2023-11-21T14:17:22;7.03;;;3.37;;
16119;SDS011;12670;53.502;10.252;2023-11-21T14:20:25;6.37;;;3.43;;
16119;SDS011;12670;53.502;10.252;2023-11-21T14:23:28;5.27;;;3.33;;
16119;SDS011;12670;53.502;10.252;2023-11-21T14:26:32;4.30;;;2.90;;
16119;SDS011;12670;53.502;10.252;2023-11-21T14:29:35;6.50;;;2.83;;
16119;SDS011;12670;53.502;10.252;2023-11-21T14:32:40;6.33;;;3.30;;
16119;SDS011;12670;53.502;10.252;2023-11-21T14:35:43;6.17;;;2.80;;
16119;SDS011;12670;53.502;10.252;2023-11-21T14:38:47;4.67;;;2.50;;
16119;SDS011;12670;53.502;10.252;2023-11-21T14:41:51;4.80;;;3.10;;
16119;SDS011;12670;53.502;10.252;2023-11-21T14:44:56;9.80;;;2.90;;
16119;SDS011;12670;53.502;10.252;2023-11-21T14:48:04;7.20;;;2.90;;
16119;SDS011;12670;53.502;10.252;2023-11-21T14:51:17;5.57;;;2.93;;
16119;SDS011;12670;53.502;10.252;2023-11-21T14:54:29;4.93;;;2.90;;
16119;SDS011;12670;53.502;10.252;2023-11-21T14:57:44;5.57;;;2.90;;
16119;SDS011;12670;53.502;10.252;2023-11-21T15:00:50;3.33;;;2.33;;
16119;SDS011;12670;53.502;10.252;2023-11-21T15:03:58;4.17;;;2.73;;
16119;SDS011;12670;53.502;10.252;2023-11-21T15:07:00;3.77;;;2.40;;
16119;SDS011;12670;53.502;10.252;2023-11-21T15:10:03;4.27;;;2.53;;
16119;SDS011;12670;53.502;10.252;2023-11-21T15:13:13;4.30;;;2.53;;
16119;SDS011;12670;53.502;10.252;2023-11-21T15:16:16;3.93;;;2.37;;
16119;SDS011;12670;53.502;10.252;2023-11-21T15:19:19;3.90;;;2.13;;
16119;SDS011;12670;53.502;10.252;2023-11-21T15:22:27;4.70;;;2.53;;
16119;SDS011;12670;53.502;10.252;2023-11-21T15:25:29;2.90;;;1.90;;
16119;SDS011;12670;53.502;10.252;2023-11-21T15:28:33;4.43;;;2.20;;
16119;SDS011;12670;53.502;10.252;2023-11-21T15:31:37;4.43;;;2.27;;
16119;SDS011;12670;53.502;10.252;2023-11-21T15:34:42;7.30;;;1.90;;
16119;SDS011;12670;53.502;10.252;2023-11-21T15:37:45;4.57;;;2.30;;
16119;SDS011;12670;53.502;10.252;2023-11-21T15:40:48;4.43;;;2.30;;
16119;SDS011;12670;53.502;10.252;2023-11-21T15:43:53;4.60;;;2.07;;
16119;SDS011;12670;53.502;10.252;2023-11-21T15:46:56;3.83;;;2.40;;
16119;SDS011;12670;53.502;10.252;2023-11-21T15:49:59;2.83;;;2.03;;
16119;SDS011;12670;53.502;10.252;2023-11-21T15:53:01;7.47;;;2.00;;
16119;SDS011;12670;53.502;10.252;2023-11-21T15:56:06;4.27;;;2.10;;
16119;SDS011;12670;53.502;10.252;2023-11-21T15:59:13;2.83;;;2.00;;
16119;SDS011;12670;53.502;10.252;2023-11-21T16:02:17;3.43;;;2.20;;
16119;SDS011;12670;53.502;10.252;2023-11-21T16:05:20;4.00;;;2.50;;
16119;SDS011;12670;53.502;10.252;2023-11-21T16:08:25;3.67;;;2.30;;
16119;SDS011;12670;53.502;10.252;2023-11-21T16:11:28;4.03;;;2.47;;
16119;SDS011;12670;53.502;10.252;2023-11-21T16:14:33;9.63;;;2.67;;
16119;SDS011;12670;53.502;10.252;2023-11-21T16:17:40;3.20;;;2.17;;
16119;SDS011;12670;53.502;10.252;2023-11-21T16:20:43;4.60;;;2.33;;
16119;SDS011;12670;53.502;10.252;2023-11-21T16:23:46;3.17;;;2.30;;
16119;SDS011;12670;53.502;10.252;2023-11-21T16:26:49;3.77;;;2.43;;
16119;SDS011;12670;53.502;10.252;2023-11-21T16:29:53;6.67;;;2.80;;
16119;SDS011;12670;53.502;10.252;2023-11-21T16:32:55;7.00;;;2.53;;
16119;SDS011;12670;53.502;10.252;2023-11-21T16:35:58;4.07;;;2.30;;
16119;SDS011;12670;53.502;10.252;2023-11-21T16:39:01;6.13;;;2.40;;
16119;SDS011;12670;53.502;10.252;2023-11-21T16:42:04;7.80;;;2.83;;
16119;SDS011;12670;53.502;10.252;2023-11-21T16:45:09;6.87;;;3.70;;
16119;SDS011;12670;53.502;10.252;2023-11-21T16:48:12;12.63;;;6.23;;
16119;SDS011;12670;53.502;10.252;2023-11-21T16:51:16;7.90;;;3.33;;
16119;SDS011;12670;53.502;10.252;2023-11-21T16:54:20;5.77;;;3.70;;
16119;SDS011;12670;53.502;10.252;2023-11-21T16:57:22;12.67;;;6.40;;
16119;SDS011;12670;53.502;10.252;2023-11-21T17:00:26;7.57;;;2.70;;
16119;SDS011;12670;53.502;10.252;2023-11-21T17:03:29;4.03;;;2.63;;
16119;SDS011;12670;53.502;10.252;2023-11-21T17:06:32;7.53;;;2.60;;
16119;SDS011;12670;53.502;10.252;2023-11-21T17:09:35;4.23;;;2.10;;
16119;SDS011;12670;53.502;10.252;2023-11-21T17:12:37;3.03;;;1.90;;
16119;SDS011;12670;53.502;10.252;2023-11-21T17:15:43;8.73;;;2.30;;
16119;SDS011;12670;53.502;10.252;2023-11-21T17:18:47;3.20;;;2.10;;
16119;SDS011;12670;53.502;10.252;2023-11-21T17:21:50;4.87;;;2.20;;
16119;SDS011;12670;53.502;10.252;2023-11-21T17:24:52;3.90;;;1.83;;
16119;SDS011;12670;53.502;10.252;2023-11-21T17:27:55;3.33;;;2.00;;
16119;SDS011;12670;53.502;10.252;2023-11-21T17:30:59;6.93;;;2.20;;
16119;SDS011;12670;53.502;10.252;2023-11-21T17:34:03;6.80;;;2.40;;
16119;SDS011;12670;53.502;10.252;2023-11-21T17:37:05;3.73;;;2.30;;
16119;SDS011;12670;53.502;10.252;2023-11-21T17:40:08;3.17;;;2.30;;
16119;SDS011;12670;53.502;10.252;2023-11-21T17:43:12;4.00;;;2.30;;
16119;SDS011;12670;53.502;10.252;2023-11-21T17:46:19;4.40;;;2.67;;
16119;SDS011;12670;53.502;10.252;2023-11-21T17:49:23;4.07;;;2.30;;
16119;SDS011;12670;53.502;10.252;2023-11-21T17:52:28;2.83;;;1.93;;
16119;SDS011;12670;53.502;10.252;2023-11-21T17:55:32;3.13;;;1.97;;
16119;SDS011;12670;53.502;10.252;2023-11-21T17:58:36;4.70;;;2.30;;
16119;SDS011;12670;53.502;10.252;2023-11-21T18:01:40;7.07;;;2.50;;
16119;SDS011;12670;53.502;10.252;2023-11-21T18:04:43;6.80;;;2.77;;
16119;SDS011;12670;53.502;10.252;2023-11-21T18:07:46;5.60;;;3.10;;
16119;SDS011;12670;53.502;10.252;2023-11-21T18:10:49;6.10;;;2.60;;